Latest Weather Observations for Lord Howe Island

IDN60801

Issued at 12:33 am EDT Monday 26 October 2020 (issued every 10 minutes, with the page automatically refreshed every 10 minutes)

About weather observations | Map of weather stations | Latest weather observations for NSW | Other Formats
Station Details ID: 200839 Name: LORD HOWE ISLAND AERO Lat: -31.54 Lon: 159.08 Height: 5.0 m
Data from the previous 72 hours. | See also: Recent months at Lord Howe Island

Observations are collected in the New South Wales time zone (Eastern Standard Time) which includes daylight savings in the summer period. Therefore 'Rain since 9am' totals and other values are based on the New South Wales time zone, which may differ from local time.

Date/Time
EDT
Temp
°C
App
Temp
°C
Dew
Point
°C
Rel
Hum
%
Delta-T
°C
Wind Press
QNH
hPa
Press
MSL
hPa
Rain since
9am
mm
Dir  Spd
km/h
Gust
km/h
Spd
kts
Gust
kts
26/12:30am 21.5 22.4 21.5 100 0.0 NE 19 24 10 13 1013.8 1013.8 0.0
26/12:14am 21.5 22.4 21.5 100 0.0 NE 19 24 10 13 1013.8 1013.8 0.0
26/12:00am 21.6 22.5 21.6 100 0.0 NE 19 33 10 18 1013.8 1013.8 0.0
 
Date/Time
EDT
Temp
°C
App
Temp
°C
Dew
Point
°C
Rel
Hum
%
Delta-T
°C
Wind Press
QNH
hPa
Press
MSL
hPa
Rain since
9am
mm
Dir  Spd
km/h
Gust
km/h
Spd
kts
Gust
kts
25/11:32pm 21.6 22.5 21.6 100 0.0 NE 19 39 10 21 1014.1 1014.1 0.0
25/11:30pm 21.5 22.4 21.5 100 0.0 NE 19 28 10 15 1014.1 1014.1 0.0
25/11:00pm 21.4 23.0 21.4 100 0.0 ENE 15 20 8 11 1014.3 1014.3 0.0
25/10:52pm 21.3 22.8 21.3 100 0.0 ENE 15 19 8 10 1014.3 1014.3 0.0
25/10:30pm 21.3 22.8 21.3 100 0.0 ENE 15 19 8 10 1014.2 1014.2 0.0
25/10:22pm 21.3 22.8 21.3 100 0.0 ENE 15 19 8 10 1014.2 1014.2 0.0
25/10:07pm 21.4 23.0 21.4 100 0.0 ENE 15 19 8 10 1014.4 1014.4 0.0
25/10:00pm 21.4 23.3 21.4 100 0.0 ENE 13 19 7 10 1014.5 1014.5 0.0
25/09:44pm 21.5 23.1 21.5 100 0.0 ENE 15 17 8 9 1014.5 1014.5 0.0
25/09:30pm 21.4 23.0 21.4 100 0.0 ENE 15 19 8 10 1014.5 1014.5 0.0
25/09:14pm 21.4 23.3 21.4 100 0.0 ENE 13 15 7 8 1014.5 1014.5 0.0
25/09:00pm 21.5 23.9 21.5 100 0.0 ENE 11 15 6 8 1014.8 1014.8 0.0
25/08:30pm 21.8 24.0 21.8 100 0.0 NNE 13 20 7 11 1014.9 1014.9 0.0
25/08:11pm 21.6 23.6 21.6 100 0.0 ENE 13 20 7 11 1014.7 1014.7 0.0
25/08:00pm 21.7 23.8 21.7 100 0.0 NE 13 20 7 11 1014.6 1014.6 0.0
25/07:44pm 21.6 23.6 21.6 100 0.0 NE 13 20 7 11 1014.3 1014.3 0.0
25/07:30pm 21.5 23.9 21.5 100 0.0 NE 11 17 6 9 1014.1 1014.1 0.0
25/07:23pm 21.4 23.3 21.4 100 0.0 ENE 13 19 7 10 1014.0 1014.0 0.0
25/07:17pm 21.5 23.5 21.5 100 0.0 ENE 13 19 7 10 1013.9 1013.9 0.0
25/07:16pm 21.5 23.5 21.5 100 0.0 ENE 13 19 7 10 1013.9 1013.9 0.0
25/07:00pm 21.5 23.9 21.5 100 0.0 ENE 11 20 6 11 1013.6 1013.6 0.0
25/06:30pm 22.0 23.9 22.0 100 0.0 NE 15 22 8 12 1013.4 1013.4 0.0
25/06:00pm 22.3 24.2 22.1 99 0.1 NE 15 22 8 12 1013.1 1013.1 0.0
25/05:30pm 22.4 24.0 22.2 99 0.1 NE 17 24 9 13 1012.8 1012.8 0.0
25/05:00pm 23.1 24.8 22.4 96 0.5 NE 17 28 9 15 1012.5 1012.5 0.0
25/04:30pm 23.8 25.4 22.1 90 1.1 NNE 17 24 9 13 1012.3 1012.3 0.0
25/04:12pm 23.7 26.0 22.1 91 1.1 NNW 13 24 7 13 1012.4 1012.4 0.0
25/04:00pm 23.6 26.2 22.0 91 1.1 N 11 19 6 10 1012.4 1012.4 0.0
25/03:30pm 24.5 26.6 23.1 92 0.9 NE 17 28 9 15 1012.3 1012.3 0.0
25/03:00pm 23.3 25.2 22.1 93 0.8 NE 15 24 8 13 1012.4 1012.4 0.0
25/02:31pm 23.5 26.0 21.8 90 1.1 N 11 22 6 12 1012.9 1012.9 0.0
25/02:30pm 23.6 26.2 21.9 90 1.1 N 11 22 6 12 1012.9 1012.9 0.0
25/02:00pm 23.6 25.8 21.9 90 1.1 NNW 13 28 7 15 1013.1 1013.1 0.0
25/01:30pm 23.0 25.0 21.5 91 1.0 NNW 13 32 7 17 1013.4 1013.4 0.0
25/01:24pm 23.4 25.6 21.8 91 1.1 NNW 13 28 7 15 1013.4 1013.4 0.0
25/01:00pm 23.6 25.1 21.3 87 1.5 NNW 15 24 8 13 1013.5 1013.5 0.0
25/12:30pm 23.7 26.6 21.8 89 1.3 N 9 19 5 10 1013.4 1013.4 0.0
25/12:13pm 23.7 26.5 21.6 88 1.4 NNW 9 20 5 11 1013.5 1013.5 0.0
25/12:00pm 23.2 25.2 21.5 90 1.1 NNW 13 30 7 16 1013.5 1013.5 0.0
25/11:45am 23.1 24.5 21.0 88 1.4 NNW 15 24 8 13 1013.7 1013.7 0.0
25/11:30am 23.5 24.2 21.2 87 1.5 NNW 19 30 10 16 1013.8 1013.8 0.0
25/11:00am 23.4 25.4 21.5 89 1.3 N 13 24 7 13 1014.0 1014.0 0.0
25/10:30am 23.1 25.0 21.4 90 1.1 NNW 13 24 7 13 1014.2 1014.2 0.0
25/10:13am 23.0 25.0 21.5 91 1.0 NNW 13 22 7 12 1014.2 1014.2 0.0
25/10:00am 23.1 24.3 21.5 91 1.1 NNW 17 28 9 15 1014.2 1014.2 0.0
25/09:30am 22.6 25.4 21.6 94 0.7 N 9 19 5 10 1014.1 1014.1 0.0
25/09:22am 22.4 25.2 21.6 95 0.5 N 9 19 5 10 1014.1 1014.1 0.0
25/09:00am 22.3 25.1 21.6 96 0.5 NNE 9 19 5 10 1014.1 1014.1 0.0
25/08:30am 21.9 24.9 21.2 96 0.5 N 7 13 4 7 1014.0 1014.0 0.0
25/08:00am 22.1 24.4 21.4 96 0.5 NE 11 19 6 10 1013.7 1013.7 0.0
25/07:30am 21.6 23.6 20.8 95 0.5 NE 11 24 6 13 1013.3 1013.3 0.0
25/07:00am 21.6 23.7 20.9 96 0.5 NE 11 17 6 9 1013.1 1013.1 0.0
25/06:30am 21.2 23.4 20.5 96 0.5 NNE 9 15 5 8 1012.9 1012.9 0.0
25/06:00am 21.1 23.7 20.4 96 0.5 NE 7 20 4 11 1012.3 1012.3 0.0
25/05:30am 21.0 22.9 20.5 97 0.3 NNE 11 20 6 11 1012.0 1012.0 0.0
25/05:00am 20.9 22.4 20.6 98 0.2 NNE 13 33 7 18 1011.5 1011.5 0.0
25/04:30am 21.0 22.6 20.8 99 0.1 NNE 13 20 7 11 1012.0 1012.0 0.0
25/04:00am 20.9 20.4 20.7 99 0.1 NE 24 32 13 17 1011.6 1011.6 0.0
25/03:30am 21.0 20.9 20.8 99 0.1 NE 22 43 12 23 1011.7 1011.7 0.0
25/03:00am 21.0 21.3 20.8 99 0.1 NE 20 35 11 19 1011.9 1011.9 0.0
25/02:30am 21.0 20.9 20.7 98 0.2 NE 22 32 12 17 1012.0 1012.0 0.0
25/02:00am 20.9 21.1 20.6 98 0.2 NE 20 35 11 19 1012.4 1012.4 0.0
25/01:30am 20.9 20.7 20.6 98 0.2 NE 22 35 12 19 1012.8 1012.8 0.0
25/01:00am 20.9 21.2 20.4 97 0.3 NE 19 32 10 17 1013.3 1013.3 0.0
25/12:30am 20.9 21.6 20.4 97 0.3 NNE 17 41 9 22 1013.6 1013.6 0.0
25/12:00am 21.0 21.2 20.5 97 0.3 NNE 20 37 11 20 1013.9 1013.9 0.0
 
Date/Time
EDT
Temp
°C
App
Temp
°C
Dew
Point
°C
Rel
Hum
%
Delta-T
°C
Wind Press
QNH
hPa
Press
MSL
hPa
Rain since
9am
mm
Dir  Spd
km/h
Gust
km/h
Spd
kts
Gust
kts
24/11:30pm 21.1 22.2 20.4 96 0.5 NNE 15 28 8 15 1014.2 1014.2 0.0
24/11:00pm 21.1 22.3 20.6 97 0.3 N 15 24 8 13 1014.5 1014.5 0.0
24/10:59pm 21.1 22.3 20.6 97 0.3 N 15 24 8 13 1014.5 1014.5 0.0
24/10:30pm 21.1 22.4 20.8 98 0.2 NNE 15 35 8 19 1014.6 1014.6 0.0
24/10:00pm 21.3 21.9 21.1 99 0.1 NNE 19 32 10 17 1014.7 1014.7 0.0
24/09:30pm 21.2 21.2 21.0 99 0.1 NNE 22 32 12 17 1014.7 1014.7 0.0
24/09:00pm 21.1 21.1 20.9 99 0.1 NE 22 32 12 17 1014.4 1014.4 0.0
24/08:30pm 21.3 21.4 21.1 99 0.1 NNE 22 32 12 17 1014.6 1014.6 0.0
24/08:16pm 21.3 21.4 21.1 99 0.1 NE 22 30 12 16 1014.5 1014.5 0.0
24/08:00pm 21.2 21.8 21.0 99 0.1 NNE 19 22 10 12 1014.2 1014.2 0.0
24/07:30pm 21.4 22.4 21.1 98 0.2 NE 17 20 9 11 1014.2 1014.2 0.0
24/07:03pm 21.4 22.3 20.9 97 0.3 NNE 17 20 9 11 1014.0 1014.0 0.0
24/07:00pm 21.3 22.6 20.8 97 0.3 NNE 15 20 8 11 1014.0 1014.0 0.0
24/06:30pm 21.5 22.2 20.5 94 0.6 NNE 17 20 9 11 1013.9 1013.9 0.0
24/06:16pm 21.6 22.4 20.6 94 0.6 NNE 17 20 9 11 1014.0 1014.0 0.0
24/06:13pm 21.6 22.4 20.6 94 0.6 NNE 17 24 9 13 1014.0 1014.0 0.0
24/06:00pm 21.7 22.4 20.5 93 0.8 NE 17 22 9 12 1013.9 1013.9 0.0
24/05:30pm 21.7 23.2 20.5 93 0.8 NE 13 22 7 12 1013.9 1013.9 0.0
24/05:13pm 21.6 22.9 20.1 91 1.0 NNE 13 19 7 10 1013.9 1013.9 0.0
24/05:00pm 21.8 22.3 20.1 90 1.1 NNE 17 20 9 11 1013.9 1013.9 0.0
24/04:44pm 22.2 22.8 20.3 89 1.2 NNE 17 20 9 11 1013.9 1013.9 0.0
24/04:31pm 22.6 22.9 20.5 88 1.4 NE 19 24 10 13 1013.9 1013.9 0.0
24/04:30pm 22.6 22.9 20.5 88 1.4 NE 19 24 10 13 1013.9 1013.9 0.0
24/04:09pm 22.5 22.5 20.2 87 1.5 NNE 20 24 11 13 1014.1 1014.1 0.0
24/04:00pm 22.5 22.5 20.2 87 1.5 NNE 20 22 11 12 1014.0 1014.0 0.0
24/03:30pm 22.7 23.0 20.4 87 1.5 NE 19 24 10 13 1014.1 1014.1 0.0
24/03:22pm 22.2 22.1 19.9 87 1.5 NNE 20 24 11 13 1014.2 1014.2 0.0
24/03:00pm 23.1 23.3 20.1 83 1.9 NE 19 24 10 13 1014.3 1014.3 0.0
24/02:30pm 23.2 23.0 19.8 81 2.2 NE 20 26 11 14 1014.4 1014.4 0.0
24/02:00pm 23.2 22.1 20.2 83 1.9 NE 26 30 14 16 1014.3 1014.3 0.0
24/01:30pm 23.2 22.5 19.4 79 2.4 NE 22 26 12 14 1014.7 1014.7 0.0
24/01:00pm 23.0 22.3 19.6 81 2.2 NE 22 26 12 14 1015.0 1015.0 0.0
24/12:30pm 23.5 23.6 20.4 83 2.0 NNE 20 24 11 13 1015.6 1015.6 0.0
24/12:00pm 23.3 23.3 20.2 83 2.0 NE 20 24 11 13 1016.0 1016.0 0.0
24/11:30am 23.0 22.9 20.0 83 1.9 NNE 20 24 11 13 1016.7 1016.7 0.0
24/11:00am 22.5 22.3 19.3 82 2.0 NNE 19 24 10 13 1016.7 1016.7 0.0
24/10:44am 22.0 21.6 19.0 83 1.9 NNE 19 22 10 12 1016.8 1016.8 0.0
24/10:30am 22.7 22.0 19.5 82 2.0 NNE 22 30 12 16 1016.8 1016.8 0.0
24/10:00am 22.2 22.1 18.8 81 2.1 NNE 17 30 9 16 1016.9 1016.9 0.0
24/09:39am 22.5 22.9 19.1 81 2.2 NNE 15 28 8 15 1016.9 1016.9 0.0
24/09:30am 22.7 24.1 19.5 82 2.0 NE 11 19 6 10 1016.9 1016.9 0.0
24/09:00am 21.8 21.9 18.4 81 2.1 NNE 15 26 8 14 1016.9 1016.9 0.4
24/08:30am 21.6 20.6 17.6 78 2.5 NNE 19 41 10 22 1016.8 1016.8 0.4
24/08:07am 21.9 21.7 18.5 81 2.1 NE 17 33 9 18 1017.0 1017.0 0.4
24/08:00am 21.9 21.4 18.7 82 2.0 NE 19 32 10 17 1017.0 1017.0 0.4
24/07:30am 21.1 19.9 18.5 85 1.6 NE 22 32 12 17 1016.8 1016.8 0.4
24/07:19am 21.2 20.6 18.8 86 1.5 NE 20 32 11 17 1016.8 1016.8 0.4
24/07:13am 21.0 20.4 18.4 85 1.6 NE 19 32 10 17 1016.8 1016.8 0.4
24/07:00am 21.0 19.9 18.6 86 1.5 NE 22 43 12 23 1016.8 1016.8 0.4
24/06:30am 20.7 19.2 17.7 83 1.8 NNE 22 37 12 20 1016.7 1016.7 0.4
24/06:18am 20.8 18.8 18.4 86 1.5 NNE 26 33 14 18 1016.4 1016.4 0.4
24/06:00am 20.4 18.5 18.5 89 1.2 NE 26 33 14 18 1015.9 1015.9 0.4
24/05:30am 20.3 17.1 18.1 87 1.4 NE 32 37 17 20 1015.6 1015.6 0.4
24/05:29am 20.2 17.3 18.0 87 1.4 NE 30 37 16 20 1015.6 1015.6 0.4
24/05:00am 20.3 17.2 18.4 89 1.2 NE 32 39 17 21 1015.3 1015.3 0.4
24/04:38am 20.2 17.1 18.9 92 0.8 NE 33 39 18 21 1015.1 1015.1 0.4
24/04:30am 20.2 17.0 18.5 90 1.1 NE 33 39 18 21 1015.1 1015.1 0.4
24/04:00am 20.2 17.1 18.3 89 1.2 ENE 32 37 17 20 1015.3 1015.3 0.4
24/03:30am 20.3 18.4 18.6 90 1.1 NE 26 33 14 18 1015.9 1015.9 0.4
24/03:00am 20.3 17.6 18.4 89 1.2 NE 30 33 16 18 1016.0 1016.0 0.4
24/02:58am 20.3 18.0 18.4 89 1.2 NE 28 33 15 18 1016.0 1016.0 0.4
24/02:46am 20.3 18.5 18.8 91 0.9 NE 26 33 14 18 1016.1 1016.1 0.4
24/02:30am 19.8 18.0 18.8 94 0.6 NE 26 35 14 19 1016.1 1016.1 0.4
24/02:00am 20.1 19.4 18.6 91 0.9 NE 20 26 11 14 1016.4 1016.4 0.4
24/01:30am 20.2 19.5 18.7 91 0.9 NE 20 24 11 13 1016.6 1016.6 0.4
24/01:00am 19.9 20.0 18.4 91 0.9 NE 15 20 8 11 1016.6 1016.6 0.4
24/12:30am 20.0 19.9 18.7 92 0.8 NE 17 20 9 11 1016.7 1016.7 0.4
24/12:00am 19.9 19.3 18.4 91 0.9 NE 19 22 10 12 1016.6 1016.6 0.4
 
Date/Time
EDT
Temp
°C
App
Temp
°C
Dew
Point
°C
Rel
Hum
%
Delta-T
°C
Wind Press
QNH
hPa
Press
MSL
hPa
Rain since
9am
mm
Dir  Spd
km/h
Gust
km/h
Spd
kts
Gust
kts
23/11:30pm 19.9 19.4 18.6 92 0.8 NE 19 22 10 12 1016.9 1016.9 0.4
23/11:00pm 19.8 20.4 18.6 93 0.7 NE 13 17 7 9 1016.9 1016.9 0.4
23/10:30pm 19.8 21.5 18.6 93 0.7 NNE 7 11 4 6 1017.3 1017.3 0.4
23/10:00pm 19.7 21.0 18.5 93 0.7 NE 9 11 5 6 1017.3 1017.3 0.4
23/09:30pm 19.6 20.5 18.3 92 0.8 NE 11 15 6 8 1017.5 1017.5 0.4
23/09:00pm 19.7 20.5 18.2 91 0.9 NNE 11 13 6 7 1017.6 1017.6 0.4
23/08:30pm 20.0 20.9 18.5 91 0.9 NNE 11 13 6 7 1017.5 1017.5 0.4
23/08:05pm 20.0 21.3 18.5 91 0.9 NNE 9 13 5 7 1017.7 1017.7 0.4
23/08:00pm 20.1 21.5 18.6 91 0.9 NNE 9 13 5 7 1017.6 1017.6 0.4
23/07:40pm 20.1 21.2 18.9 93 0.8 NE 11 13 6 7 1017.3 1017.3 0.4
23/07:30pm 19.9 21.3 18.6 92 0.8 ENE 9 13 5 7 1017.4 1017.4 0.4
23/07:00pm 19.8 20.6 18.1 90 1.0 NE 11 13 6 7 1017.0 1017.0 0.4
23/06:30pm 20.5 21.6 18.1 86 1.5 NE 9 11 5 6 1017.2 1017.2 0.4
23/06:00pm 21.1 22.3 18.3 84 1.7 NE 9 11 5 6 1016.9 1016.9 0.4
23/05:30pm 21.5 22.3 19.1 86 1.5 ENE 13 17 7 9 1016.6 1016.6 0.4
23/05:00pm 21.7 22.1 18.9 84 1.8 ENE 15 19 8 10 1016.2 1016.2 0.4
23/04:30pm 22.0 21.7 19.2 84 1.8 ENE 19 22 10 12 1016.0 1016.0 0.4
23/04:00pm 22.1 22.3 19.3 84 1.8 ENE 17 20 9 11 1016.1 1016.1 0.4
23/03:52pm 22.3 22.7 19.8 86 1.6 ENE 17 22 9 12 1016.0 1016.0 0.4
23/03:35pm 22.3 22.4 20.0 87 1.5 ENE 19 24 10 13 1016.1 1016.1 0.4
23/03:30pm 21.9 22.3 19.8 88 1.3 ENE 17 20 9 11 1016.1 1016.1 0.4
23/03:00pm 22.6 23.4 19.8 84 1.8 ENE 15 20 8 11 1016.5 1016.5 0.4
23/02:30pm 22.7 23.8 19.7 83 1.9 NE 13 17 7 9 1016.8 1016.8 0.4
23/02:00pm 22.6 23.7 19.6 83 1.9 ENE 13 15 7 8 1017.1 1017.1 0.4
23/01:30pm 22.7 23.4 19.7 83 1.9 NE 15 19 8 10 1017.4 1017.4 0.4
23/01:00pm 22.6 22.5 19.6 83 1.9 NE 19 22 10 12 1017.4 1017.4 0.2
23/12:30pm 22.2 22.0 19.4 84 1.8 ENE 19 22 10 12 1017.5 1017.5 0.2
23/12:00pm 22.4 22.3 19.6 84 1.8 NE 19 24 10 13 1017.5 1017.5 0.2
23/11:30am 22.2 22.3 20.3 89 1.2 ENE 20 24 11 13 1017.6 1017.6 0.2
23/11:00am 22.0 22.0 20.1 89 1.2 ENE 20 26 11 14 1017.7 1017.7 0.2
23/10:30am 20.6 19.3 19.1 91 0.9 ENE 24 30 13 16 1017.6 1017.6 0.0
23/10:00am 21.7 20.8 19.8 89 1.2 ENE 24 32 13 17 1017.6 1017.6 0.0
23/09:30am 21.4 20.1 19.1 87 1.5 ENE 24 32 13 17 1017.7 1017.7 0.0
23/09:00am 21.6 20.5 19.5 88 1.3 ENE 24 32 13 17 1017.4 1017.4 13.4
23/08:30am 21.3 20.4 19.0 87 1.5 ENE 22 30 12 16 1017.6 1017.6 13.4
23/08:00am 21.3 20.5 19.2 88 1.3 ENE 22 30 12 16 1017.8 1017.8 13.4
23/07:30am 21.2 20.9 19.1 88 1.3 ENE 19 24 10 13 1017.9 1017.9 13.4
23/07:01am 20.6 20.2 18.9 90 1.1 ENE 19 24 10 13 1017.8 1017.8 13.4
23/07:00am 20.6 20.2 18.9 90 1.1 ENE 19 24 10 13 1017.8 1017.8 13.4
23/06:33am 19.9 20.0 19.1 95 0.5 E 17 22 9 12 1017.7 1017.7 13.4
23/06:30am 19.8 19.7 18.8 94 0.6 E 17 20 9 11 1017.6 1017.6 13.4
23/06:00am 19.5 19.6 18.3 93 0.7 E 15 20 8 11 1017.5 1017.5 13.4
23/05:52am 19.5 19.3 18.5 94 0.6 E 17 20 9 11 1017.4 1017.4 13.4
23/05:32am 19.5 19.4 18.8 96 0.4 ENE 17 22 9 12 1017.2 1017.2 13.4
23/05:30am 19.5 19.4 18.7 95 0.5 ENE 17 22 9 12 1017.2 1017.2 13.4
23/05:00am 19.5 19.2 18.3 93 0.7 ENE 17 22 9 12 1016.7 1016.7 13.4
23/04:30am 19.4 19.1 18.2 93 0.7 E 17 20 9 11 1016.5 1016.5 13.4
23/04:19am 19.3 19.3 18.1 93 0.7 E 15 19 8 10 1016.5 1016.5 13.4
23/04:01am 19.5 19.3 18.5 94 0.6 ENE 17 20 9 11 1016.4 1016.4 13.4
23/04:00am 19.6 19.4 18.6 94 0.6 ENE 17 22 9 12 1016.4 1016.4 13.4
23/03:30am 19.7 20.0 18.7 94 0.6 ENE 15 20 8 11 1016.6 1016.6 13.4
23/03:27am 19.7 19.6 18.7 94 0.6 ENE 17 20 9 11 1016.6 1016.6 13.4
23/03:14am 19.6 19.8 18.6 94 0.6 ENE 15 19 8 10 1016.7 1016.7 13.4
23/03:00am 19.4 19.4 18.2 93 0.7 E 15 19 8 10 1016.7 1016.7 13.4
23/02:30am 19.6 19.4 18.4 93 0.7 ENE 17 20 9 11 1016.8 1016.8 13.4
23/02:00am 19.5 20.2 18.0 91 0.9 ENE 11 17 6 9 1017.0 1017.0 13.4
23/01:37am 19.5 19.9 18.2 92 0.8 ENE 13 15 7 8 1017.2 1017.2 13.4
23/01:30am 19.5 19.9 18.2 92 0.8 ENE 13 17 7 9 1017.3 1017.3 13.4
23/01:00am 19.6 19.0 18.4 93 0.7 ENE 19 24 10 13 1017.4 1017.4 13.4
23/12:53am 19.6 19.0 18.4 93 0.7 ENE 19 24 10 13 1017.3 1017.3 13.4

Other formats

Comma delimited format used in spreadsheet applications
http://www.bom.gov.au/fwo/IDN60801/IDN60801.94995.axf

JavaScript Object Notation format (JSON) in row-major order
http://www.bom.gov.au/fwo/IDN60801/IDN60801.94995.json

Data quality

Most of these data are generated automatically and are frequently updated. Quality checks on data are not normally performed. It is possible for incorrect values to appear. Refer to information at About Latest Weather Observations and please check the disclaimer before using these data.